ENHD/HAU METAR and TAF weather

Enter ICAO airport designator
Station Type Date Time Source
ENHD METAR 2018/07/21 22:50 UTC NOAA

ENHD 212250Z AUTO 29006KT 9999 FEW008/// OVC012/// 14/14 Q1010


Station Type Date Time Source
ENHD Decoded METAR 2018/07/21 22:50 UTC NOAA

Haugesund / Karmoy, Norway (ENHD) 59-21N 005-13E 24M
Jul 21, 2018 - 06:50 PM EDT / 2018.07.21 2250 UTC
Wind: from the WNW (290 degrees) at 7 MPH (6 KT):0
Visibility: greater than 7 mile(s):0
Sky conditions: overcast
Temperature: 57 F (14 C)
Dew Point: 57 F (14 C)
Relative Humidity: 100%
Pressure (altimeter): 29.83 in. Hg (1010 hPa)
ob: ENHD 212250Z AUTO 29006KT 9999 FEW008/// OVC012/// 14/14 Q1010
cycle: 23

Station Type Date Time Source
ENHD TAF UTC NOAA

Error!


Example: see airport list